Terminal Aerodrome Forecast
Issued by NWS Cleveland, OH

Home | Current Version | Previous Version | Graphics & Text | Print | Product List | Glossary On
Versions: 1 2 3 4 5 6 7 8 9 10 11 12 13
000
FTUS41 KCLE 231700
TAFYNG
TAF
KYNG 231738Z 2318/2418 29015G25KT 6SM -SHSN BKN025 OVC035
     FM232300 30012KT P6SM VCSH SCT025 OVC035
     FM240900 29007KT P6SM BKN035=

USA.gov is the U.S. government's official web portal to all federal, state and local government web resources and services.